VOML/IXE METAR and TAF weather

Enter ICAO airport designator
Station Type Date Time Source
VOML METAR 2022/06/30 01:00 UTC NOAA

VOML 300100Z 29003KT 2500 -TSRA BR FEW002 SCT012 FEW025CB OVC080 24/23 Q1005 BECMG 3000 -TSRA BR


Station Type Date Time Source
VOML Decoded METAR 2022/06/30 01:00 UTC NOAA

Mangalore / Bajpe, India (VOML) 12-55N 074-53E 102M
Jun 29, 2022 - 09:00 PM EDT / 2022.06.30 0100 UTC
Wind: from the WNW (290 degrees) at 3 MPH (3 KT):0
Visibility: 1 mile(s):0
Sky conditions: overcast
Weather: light rain with thunder; mist; Cumulonimbus clouds observed
Temperature: 75 F (24 C)
Dew Point: 73 F (23 C)
Relative Humidity: 94%
Pressure (altimeter): 29.68 in. Hg (1005 hPa)
ob: VOML 300100Z 29003KT 2500 -TSRA BR FEW002 SCT012 FEW025CB OVC080 24/23 Q1005 BECMG 3000 -TSRA BR
cycle: 1

Station Type Date Time Source
VOML TAF 2022/06/29 18:00 UTC NOAA

TAF VOML 291700Z 2918/3024 11010KT 5000 DZ FEW005 SCT012 BKN080
TEMPO 2921/3003 3000 RA BR SCT005 SCT012 FEW025CB BKN080
BECMG 3006/3007 29010KT 6000 SCT012
TEMPO 3009/3015 3000 RA DZ SCT005 SCT012 FEW025CB BKN080
BECMG 3015/3016 11005KT

Example: see airport list